sensor_id;sensor_type;location;lat;lon;timestamp;P1;durP1;ratioP1;P2;durP2;ratioP2
21354;SDS011;10835;50.148;19.760;2023-07-31T00:00:14;2.63;;;1.50;;
21354;SDS011;10835;50.148;19.760;2023-07-31T00:02:43;2.65;;;1.85;;
21354;SDS011;10835;50.148;19.760;2023-07-31T00:05:11;4.28;;;1.88;;
21354;SDS011;10835;50.148;19.760;2023-07-31T00:07:41;2.08;;;1.65;;
21354;SDS011;10835;50.148;19.760;2023-07-31T00:10:09;1.88;;;1.70;;
21354;SDS011;10835;50.148;19.760;2023-07-31T00:12:38;2.72;;;1.88;;
21354;SDS011;10835;50.148;19.760;2023-07-31T00:15:07;3.20;;;1.95;;
21354;SDS011;10835;50.148;19.760;2023-07-31T00:17:35;2.20;;;1.60;;
21354;SDS011;10835;50.148;19.760;2023-07-31T00:20:04;3.15;;;1.58;;
21354;SDS011;10835;50.148;19.760;2023-07-31T00:22:33;2.75;;;1.50;;
21354;SDS011;10835;50.148;19.760;2023-07-31T00:25:04;2.25;;;1.70;;
21354;SDS011;10835;50.148;19.760;2023-07-31T00:27:33;5.68;;;1.60;;
21354;SDS011;10835;50.148;19.760;2023-07-31T00:30:01;2.08;;;1.65;;
21354;SDS011;10835;50.148;19.760;2023-07-31T00:32:32;2.65;;;1.85;;
21354;SDS011;10835;50.148;19.760;2023-07-31T00:35:00;2.95;;;1.83;;
21354;SDS011;10835;50.148;19.760;2023-07-31T00:37:30;2.45;;;2.05;;
21354;SDS011;10835;50.148;19.760;2023-07-31T00:39:58;2.13;;;1.90;;
21354;SDS011;10835;50.148;19.760;2023-07-31T00:42:30;3.28;;;2.78;;
21354;SDS011;10835;50.148;19.760;2023-07-31T00:44:59;2.20;;;2.00;;
21354;SDS011;10835;50.148;19.760;2023-07-31T00:47:29;2.08;;;1.77;;
21354;SDS011;10835;50.148;19.760;2023-07-31T00:49:58;3.10;;;2.20;;
21354;SDS011;10835;50.148;19.760;2023-07-31T00:52:26;2.47;;;2.13;;
21354;SDS011;10835;50.148;19.760;2023-07-31T00:54:55;3.63;;;2.30;;
21354;SDS011;10835;50.148;19.760;2023-07-31T00:57:24;2.60;;;1.85;;
21354;SDS011;10835;50.148;19.760;2023-07-31T00:59:54;4.85;;;2.50;;
21354;SDS011;10835;50.148;19.760;2023-07-31T01:02:22;3.88;;;1.83;;
21354;SDS011;10835;50.148;19.760;2023-07-31T01:04:51;3.20;;;2.20;;
21354;SDS011;10835;50.148;19.760;2023-07-31T01:07:22;3.03;;;2.50;;
21354;SDS011;10835;50.148;19.760;2023-07-31T01:10:00;3.35;;;2.30;;
21354;SDS011;10835;50.148;19.760;2023-07-31T01:12:41;4.22;;;2.40;;
21354;SDS011;10835;50.148;19.760;2023-07-31T01:15:13;2.47;;;1.52;;
21354;SDS011;10835;50.148;19.760;2023-07-31T01:17:43;3.88;;;2.00;;
21354;SDS011;10835;50.148;19.760;2023-07-31T01:20:12;3.88;;;1.83;;
21354;SDS011;10835;50.148;19.760;2023-07-31T01:22:52;3.75;;;1.90;;
21354;SDS011;10835;50.148;19.760;2023-07-31T01:25:45;3.00;;;2.20;;
21354;SDS011;10835;50.148;19.760;2023-07-31T01:28:35;4.68;;;2.67;;
21354;SDS011;10835;50.148;19.760;2023-07-31T01:31:09;6.63;;;2.42;;
21354;SDS011;10835;50.148;19.760;2023-07-31T01:33:40;3.42;;;2.40;;
21354;SDS011;10835;50.148;19.760;2023-07-31T01:36:08;4.68;;;2.70;;
21354;SDS011;10835;50.148;19.760;2023-07-31T01:38:38;4.55;;;2.60;;
21354;SDS011;10835;50.148;19.760;2023-07-31T01:41:09;3.22;;;2.38;;
21354;SDS011;10835;50.148;19.760;2023-07-31T01:43:37;4.93;;;2.55;;
21354;SDS011;10835;50.148;19.760;2023-07-31T01:46:06;3.80;;;2.53;;
21354;SDS011;10835;50.148;19.760;2023-07-31T01:48:34;3.60;;;2.22;;
21354;SDS011;10835;50.148;19.760;2023-07-31T01:51:03;3.55;;;2.55;;
21354;SDS011;10835;50.148;19.760;2023-07-31T01:53:31;3.53;;;2.05;;
21354;SDS011;10835;50.148;19.760;2023-07-31T01:56:00;3.20;;;2.50;;
21354;SDS011;10835;50.148;19.760;2023-07-31T01:58:31;3.83;;;2.13;;
21354;SDS011;10835;50.148;19.760;2023-07-31T02:00:59;3.00;;;2.05;;
21354;SDS011;10835;50.148;19.760;2023-07-31T02:03:27;3.78;;;2.63;;
21354;SDS011;10835;50.148;19.760;2023-07-31T02:05:56;3.50;;;2.20;;
21354;SDS011;10835;50.148;19.760;2023-07-31T02:08:24;3.47;;;2.55;;
21354;SDS011;10835;50.148;19.760;2023-07-31T02:10:53;2.70;;;2.20;;
21354;SDS011;10835;50.148;19.760;2023-07-31T02:13:22;3.78;;;2.85;;
21354;SDS011;10835;50.148;19.760;2023-07-31T02:15:52;3.20;;;2.28;;
21354;SDS011;10835;50.148;19.760;2023-07-31T02:18:20;3.03;;;2.40;;
21354;SDS011;10835;50.148;19.760;2023-07-31T02:20:49;4.82;;;2.35;;
21354;SDS011;10835;50.148;19.760;2023-07-31T02:23:19;4.35;;;2.47;;
21354;SDS011;10835;50.148;19.760;2023-07-31T02:25:47;2.83;;;2.35;;
21354;SDS011;10835;50.148;19.760;2023-07-31T02:28:15;3.08;;;2.35;;
21354;SDS011;10835;50.148;19.760;2023-07-31T02:30:44;2.97;;;2.58;;
21354;SDS011;10835;50.148;19.760;2023-07-31T02:33:14;3.20;;;2.10;;
21354;SDS011;10835;50.148;19.760;2023-07-31T02:35:43;4.72;;;2.33;;
21354;SDS011;10835;50.148;19.760;2023-07-31T02:38:11;3.13;;;2.50;;
21354;SDS011;10835;50.148;19.760;2023-07-31T02:40:40;5.72;;;2.35;;
21354;SDS011;10835;50.148;19.760;2023-07-31T02:43:09;5.00;;;2.70;;
21354;SDS011;10835;50.148;19.760;2023-07-31T02:45:37;4.65;;;3.22;;
21354;SDS011;10835;50.148;19.760;2023-07-31T02:48:05;4.28;;;2.78;;
21354;SDS011;10835;50.148;19.760;2023-07-31T02:50:35;3.20;;;2.53;;
21354;SDS011;10835;50.148;19.760;2023-07-31T02:53:03;3.08;;;2.22;;
21354;SDS011;10835;50.148;19.760;2023-07-31T02:55:32;3.40;;;2.13;;
21354;SDS011;10835;50.148;19.760;2023-07-31T02:58:00;3.22;;;2.42;;
21354;SDS011;10835;50.148;19.760;2023-07-31T03:00:29;3.05;;;2.25;;
21354;SDS011;10835;50.148;19.760;2023-07-31T03:02:57;2.10;;;1.90;;
21354;SDS011;10835;50.148;19.760;2023-07-31T03:05:27;6.68;;;3.42;;
21354;SDS011;10835;50.148;19.760;2023-07-31T03:07:56;5.78;;;3.42;;
21354;SDS011;10835;50.148;19.760;2023-07-31T03:10:25;7.18;;;3.90;;
21354;SDS011;10835;50.148;19.760;2023-07-31T03:12:53;4.53;;;2.88;;
21354;SDS011;10835;50.148;19.760;2023-07-31T03:15:21;4.15;;;2.88;;
21354;SDS011;10835;50.148;19.760;2023-07-31T03:17:50;4.82;;;3.28;;
21354;SDS011;10835;50.148;19.760;2023-07-31T03:20:18;3.92;;;3.00;;
21354;SDS011;10835;50.148;19.760;2023-07-31T03:22:47;3.80;;;2.60;;
21354;SDS011;10835;50.148;19.760;2023-07-31T03:25:16;4.07;;;2.88;;
21354;SDS011;10835;50.148;19.760;2023-07-31T03:27:45;4.43;;;3.15;;
21354;SDS011;10835;50.148;19.760;2023-07-31T03:30:13;4.00;;;3.05;;
21354;SDS011;10835;50.148;19.760;2023-07-31T03:32:41;4.88;;;2.95;;
21354;SDS011;10835;50.148;19.760;2023-07-31T03:35:10;4.13;;;3.13;;
21354;SDS011;10835;50.148;19.760;2023-07-31T03:37:38;7.13;;;3.47;;
21354;SDS011;10835;50.148;19.760;2023-07-31T03:40:07;3.47;;;3.00;;
21354;SDS011;10835;50.148;19.760;2023-07-31T03:42:37;4.38;;;3.35;;
21354;SDS011;10835;50.148;19.760;2023-07-31T03:45:07;3.83;;;2.65;;
21354;SDS011;10835;50.148;19.760;2023-07-31T03:47:36;5.13;;;3.25;;
21354;SDS011;10835;50.148;19.760;2023-07-31T03:50:05;5.32;;;3.63;;
21354;SDS011;10835;50.148;19.760;2023-07-31T03:52:34;6.85;;;3.90;;
21354;SDS011;10835;50.148;19.760;2023-07-31T03:55:02;5.20;;;2.28;;
21354;SDS011;10835;50.148;19.760;2023-07-31T03:57:31;4.05;;;2.88;;
21354;SDS011;10835;50.148;19.760;2023-07-31T04:00:01;4.82;;;3.25;;
21354;SDS011;10835;50.148;19.760;2023-07-31T04:02:37;4.80;;;3.05;;
21354;SDS011;10835;50.148;19.760;2023-07-31T04:05:06;7.03;;;3.60;;
21354;SDS011;10835;50.148;19.760;2023-07-31T04:07:34;3.83;;;2.92;;
21354;SDS011;10835;50.148;19.760;2023-07-31T04:10:03;3.97;;;2.92;;
21354;SDS011;10835;50.148;19.760;2023-07-31T04:12:32;3.45;;;2.42;;
21354;SDS011;10835;50.148;19.760;2023-07-31T04:15:01;3.75;;;2.60;;
21354;SDS011;10835;50.148;19.760;2023-07-31T04:17:30;2.90;;;2.13;;
21354;SDS011;10835;50.148;19.760;2023-07-31T04:19:58;4.30;;;2.65;;
21354;SDS011;10835;50.148;19.760;2023-07-31T04:22:27;4.30;;;2.55;;
21354;SDS011;10835;50.148;19.760;2023-07-31T04:24:55;3.42;;;2.38;;
21354;SDS011;10835;50.148;19.760;2023-07-31T04:27:24;3.47;;;2.53;;
21354;SDS011;10835;50.148;19.760;2023-07-31T04:29:52;4.22;;;2.65;;
21354;SDS011;10835;50.148;19.760;2023-07-31T04:32:22;3.40;;;2.20;;
21354;SDS011;10835;50.148;19.760;2023-07-31T04:34:50;5.32;;;3.10;;
21354;SDS011;10835;50.148;19.760;2023-07-31T04:37:19;7.75;;;3.15;;
21354;SDS011;10835;50.148;19.760;2023-07-31T04:39:47;3.95;;;2.80;;
21354;SDS011;10835;50.148;19.760;2023-07-31T04:42:15;3.35;;;2.70;;
21354;SDS011;10835;50.148;19.760;2023-07-31T04:44:44;4.75;;;3.08;;
21354;SDS011;10835;50.148;19.760;2023-07-31T04:47:12;7.93;;;3.28;;
21354;SDS011;10835;50.148;19.760;2023-07-31T04:49:42;4.10;;;2.97;;
21354;SDS011;10835;50.148;19.760;2023-07-31T04:52:10;3.35;;;2.75;;
21354;SDS011;10835;50.148;19.760;2023-07-31T04:54:39;5.65;;;3.25;;
21354;SDS011;10835;50.148;19.760;2023-07-31T04:57:07;4.18;;;2.88;;
21354;SDS011;10835;50.148;19.760;2023-07-31T04:59:35;3.28;;;2.60;;
21354;SDS011;10835;50.148;19.760;2023-07-31T05:02:07;3.45;;;2.45;;
21354;SDS011;10835;50.148;19.760;2023-07-31T05:04:36;3.40;;;2.83;;
21354;SDS011;10835;50.148;19.760;2023-07-31T05:07:06;5.07;;;2.90;;
21354;SDS011;10835;50.148;19.760;2023-07-31T05:09:34;2.67;;;2.42;;
21354;SDS011;10835;50.148;19.760;2023-07-31T05:12:03;5.25;;;2.65;;
21354;SDS011;10835;50.148;19.760;2023-07-31T05:14:35;3.63;;;2.78;;
21354;SDS011;10835;50.148;19.760;2023-07-31T05:17:05;3.70;;;2.88;;
21354;SDS011;10835;50.148;19.760;2023-07-31T05:19:33;3.08;;;2.20;;
21354;SDS011;10835;50.148;19.760;2023-07-31T05:22:02;2.72;;;2.10;;
21354;SDS011;10835;50.148;19.760;2023-07-31T05:24:32;3.33;;;2.83;;
21354;SDS011;10835;50.148;19.760;2023-07-31T05:27:00;5.75;;;3.95;;
21354;SDS011;10835;50.148;19.760;2023-07-31T05:29:28;4.55;;;3.47;;
21354;SDS011;10835;50.148;19.760;2023-07-31T05:31:57;7.05;;;3.92;;
21354;SDS011;10835;50.148;19.760;2023-07-31T05:34:27;5.82;;;3.95;;
21354;SDS011;10835;50.148;19.760;2023-07-31T05:36:56;7.70;;;4.00;;
21354;SDS011;10835;50.148;19.760;2023-07-31T05:39:24;7.15;;;4.00;;
21354;SDS011;10835;50.148;19.760;2023-07-31T05:41:54;4.68;;;3.88;;
21354;SDS011;10835;50.148;19.760;2023-07-31T05:44:22;4.68;;;4.22;;
21354;SDS011;10835;50.148;19.760;2023-07-31T05:46:51;5.70;;;3.80;;
21354;SDS011;10835;50.148;19.760;2023-07-31T05:49:19;5.00;;;4.50;;
21354;SDS011;10835;50.148;19.760;2023-07-31T05:51:47;3.80;;;3.45;;
21354;SDS011;10835;50.148;19.760;2023-07-31T05:54:16;3.40;;;3.10;;
21354;SDS011;10835;50.148;19.760;2023-07-31T05:56:44;4.13;;;3.50;;
21354;SDS011;10835;50.148;19.760;2023-07-31T05:59:14;4.78;;;3.88;;
21354;SDS011;10835;50.148;19.760;2023-07-31T06:01:42;3.95;;;2.97;;
21354;SDS011;10835;50.148;19.760;2023-07-31T06:04:13;3.63;;;2.67;;
21354;SDS011;10835;50.148;19.760;2023-07-31T06:06:42;2.72;;;2.20;;
21354;SDS011;10835;50.148;19.760;2023-07-31T06:09:10;2.85;;;2.13;;
21354;SDS011;10835;50.148;19.760;2023-07-31T06:11:40;2.35;;;2.10;;
21354;SDS011;10835;50.148;19.760;2023-07-31T06:14:11;4.07;;;2.30;;
21354;SDS011;10835;50.148;19.760;2023-07-31T06:16:41;7.93;;;2.60;;
21354;SDS011;10835;50.148;19.760;2023-07-31T06:19:11;2.65;;;2.10;;
21354;SDS011;10835;50.148;19.760;2023-07-31T06:21:39;3.55;;;2.72;;
21354;SDS011;10835;50.148;19.760;2023-07-31T06:24:11;5.70;;;2.28;;
21354;SDS011;10835;50.148;19.760;2023-07-31T06:26:39;4.82;;;2.58;;
21354;SDS011;10835;50.148;19.760;2023-07-31T06:29:08;3.30;;;2.30;;
21354;SDS011;10835;50.148;19.760;2023-07-31T06:31:38;2.78;;;2.40;;
21354;SDS011;10835;50.148;19.760;2023-07-31T06:34:10;4.63;;;2.78;;
21354;SDS011;10835;50.148;19.760;2023-07-31T06:36:38;5.90;;;2.72;;
21354;SDS011;10835;50.148;19.760;2023-07-31T06:39:07;4.20;;;2.28;;
21354;SDS011;10835;50.148;19.760;2023-07-31T06:41:35;5.40;;;2.75;;
21354;SDS011;10835;50.148;19.760;2023-07-31T06:44:09;3.30;;;2.85;;
21354;SDS011;10835;50.148;19.760;2023-07-31T06:46:38;4.40;;;2.65;;
21354;SDS011;10835;50.148;19.760;2023-07-31T06:49:08;6.65;;;2.72;;
21354;SDS011;10835;50.148;19.760;2023-07-31T06:51:36;5.78;;;2.53;;
21354;SDS011;10835;50.148;19.760;2023-07-31T06:54:05;3.30;;;2.25;;
21354;SDS011;10835;50.148;19.760;2023-07-31T06:56:33;3.45;;;2.10;;
21354;SDS011;10835;50.148;19.760;2023-07-31T06:59:05;4.35;;;2.25;;
21354;SDS011;10835;50.148;19.760;2023-07-31T07:01:33;4.47;;;2.67;;
21354;SDS011;10835;50.148;19.760;2023-07-31T07:04:02;4.95;;;2.10;;
21354;SDS011;10835;50.148;19.760;2023-07-31T07:06:33;4.10;;;1.77;;
21354;SDS011;10835;50.148;19.760;2023-07-31T07:09:02;3.72;;;2.00;;
21354;SDS011;10835;50.148;19.760;2023-07-31T07:11:30;1.67;;;1.40;;
21354;SDS011;10835;50.148;19.760;2023-07-31T07:13:59;2.80;;;1.90;;
21354;SDS011;10835;50.148;19.760;2023-07-31T07:16:28;3.58;;;1.63;;
21354;SDS011;10835;50.148;19.760;2023-07-31T07:18:56;2.38;;;1.60;;
21354;SDS011;10835;50.148;19.760;2023-07-31T07:21:31;5.30;;;2.53;;
21354;SDS011;10835;50.148;19.760;2023-07-31T07:24:01;5.00;;;2.42;;
21354;SDS011;10835;50.148;19.760;2023-07-31T07:26:31;4.07;;;2.53;;
21354;SDS011;10835;50.148;19.760;2023-07-31T07:28:59;5.72;;;2.65;;
21354;SDS011;10835;50.148;19.760;2023-07-31T07:31:28;4.57;;;2.58;;
21354;SDS011;10835;50.148;19.760;2023-07-31T07:33:57;3.97;;;2.20;;
21354;SDS011;10835;50.148;19.760;2023-07-31T07:36:27;8.55;;;2.70;;
21354;SDS011;10835;50.148;19.760;2023-07-31T07:38:55;2.88;;;2.22;;
21354;SDS011;10835;50.148;19.760;2023-07-31T07:41:25;5.63;;;2.42;;
21354;SDS011;10835;50.148;19.760;2023-07-31T07:43:54;4.47;;;2.10;;
21354;SDS011;10835;50.148;19.760;2023-07-31T07:46:22;9.60;;;2.60;;
21354;SDS011;10835;50.148;19.760;2023-07-31T07:48:50;3.00;;;2.13;;
21354;SDS011;10835;50.148;19.760;2023-07-31T07:51:19;6.53;;;2.47;;
21354;SDS011;10835;50.148;19.760;2023-07-31T07:53:47;2.13;;;1.67;;
21354;SDS011;10835;50.148;19.760;2023-07-31T07:56:15;2.90;;;2.08;;
21354;SDS011;10835;50.148;19.760;2023-07-31T07:58:45;2.38;;;2.00;;
21354;SDS011;10835;50.148;19.760;2023-07-31T08:01:16;12.68;;;2.28;;
21354;SDS011;10835;50.148;19.760;2023-07-31T08:03:45;4.43;;;1.95;;
21354;SDS011;10835;50.148;19.760;2023-07-31T08:06:14;2.75;;;2.10;;
21354;SDS011;10835;50.148;19.760;2023-07-31T08:08:43;3.95;;;2.30;;
21354;SDS011;10835;50.148;19.760;2023-07-31T08:11:11;3.08;;;1.98;;
21354;SDS011;10835;50.148;19.760;2023-07-31T08:13:39;5.15;;;2.35;;
21354;SDS011;10835;50.148;19.760;2023-07-31T08:16:09;3.20;;;1.90;;
21354;SDS011;10835;50.148;19.760;2023-07-31T08:18:38;4.93;;;2.20;;
21354;SDS011;10835;50.148;19.760;2023-07-31T08:21:09;4.22;;;2.25;;
21354;SDS011;10835;50.148;19.760;2023-07-31T08:23:38;4.28;;;1.90;;
21354;SDS011;10835;50.148;19.760;2023-07-31T08:26:06;5.90;;;1.92;;
21354;SDS011;10835;50.148;19.760;2023-07-31T08:28:34;3.88;;;1.92;;
21354;SDS011;10835;50.148;19.760;2023-07-31T08:31:03;5.32;;;2.00;;
21354;SDS011;10835;50.148;19.760;2023-07-31T08:33:36;4.47;;;1.90;;
21354;SDS011;10835;50.148;19.760;2023-07-31T08:36:04;3.33;;;1.67;;
21354;SDS011;10835;50.148;19.760;2023-07-31T08:38:33;4.78;;;1.83;;
21354;SDS011;10835;50.148;19.760;2023-07-31T08:41:02;4.93;;;1.77;;
21354;SDS011;10835;50.148;19.760;2023-07-31T08:43:31;3.85;;;1.83;;
21354;SDS011;10835;50.148;19.760;2023-07-31T08:46:01;4.45;;;2.08;;
21354;SDS011;10835;50.148;19.760;2023-07-31T08:48:31;2.80;;;1.75;;
21354;SDS011;10835;50.148;19.760;2023-07-31T08:51:01;3.05;;;1.70;;
21354;SDS011;10835;50.148;19.760;2023-07-31T08:53:31;2.40;;;1.63;;
21354;SDS011;10835;50.148;19.760;2023-07-31T08:55:59;4.93;;;1.60;;
21354;SDS011;10835;50.148;19.760;2023-07-31T08:58:29;2.03;;;1.45;;
21354;SDS011;10835;50.148;19.760;2023-07-31T09:01:00;6.03;;;1.48;;
21354;SDS011;10835;50.148;19.760;2023-07-31T09:03:33;4.75;;;1.40;;
21354;SDS011;10835;50.148;19.760;2023-07-31T09:06:04;4.40;;;1.73;;
21354;SDS011;10835;50.148;19.760;2023-07-31T09:08:34;3.20;;;1.70;;
21354;SDS011;10835;50.148;19.760;2023-07-31T09:11:04;3.45;;;1.70;;
21354;SDS011;10835;50.148;19.760;2023-07-31T09:13:35;1.85;;;1.48;;
21354;SDS011;10835;50.148;19.760;2023-07-31T09:16:04;2.30;;;1.50;;
21354;SDS011;10835;50.148;19.760;2023-07-31T09:18:33;1.67;;;1.52;;
21354;SDS011;10835;50.148;19.760;2023-07-31T09:21:27;5.28;;;1.90;;
21354;SDS011;10835;50.148;19.760;2023-07-31T09:23:55;2.90;;;1.58;;
21354;SDS011;10835;50.148;19.760;2023-07-31T09:26:29;3.58;;;1.52;;
21354;SDS011;10835;50.148;19.760;2023-07-31T09:28:58;5.00;;;1.90;;
21354;SDS011;10835;50.148;19.760;2023-07-31T09:31:37;3.17;;;1.55;;
21354;SDS011;10835;50.148;19.760;2023-07-31T09:34:07;3.70;;;1.48;;
21354;SDS011;10835;50.148;19.760;2023-07-31T09:36:40;3.83;;;1.75;;
21354;SDS011;10835;50.148;19.760;2023-07-31T09:39:13;4.45;;;1.95;;
21354;SDS011;10835;50.148;19.760;2023-07-31T09:41:43;4.20;;;1.80;;
21354;SDS011;10835;50.148;19.760;2023-07-31T09:44:13;6.53;;;1.70;;
21354;SDS011;10835;50.148;19.760;2023-07-31T09:46:43;4.93;;;1.60;;
21354;SDS011;10835;50.148;19.760;2023-07-31T09:49:12;3.45;;;1.45;;
21354;SDS011;10835;50.148;19.760;2023-07-31T09:51:43;2.45;;;1.60;;
21354;SDS011;10835;50.148;19.760;2023-07-31T09:54:15;5.88;;;1.70;;
21354;SDS011;10835;50.148;19.760;2023-07-31T09:56:44;2.60;;;1.80;;
21354;SDS011;10835;50.148;19.760;2023-07-31T09:59:16;5.72;;;1.63;;
21354;SDS011;10835;50.148;19.760;2023-07-31T10:01:49;3.70;;;1.98;;
21354;SDS011;10835;50.148;19.760;2023-07-31T10:04:19;2.78;;;1.77;;
21354;SDS011;10835;50.148;19.760;2023-07-31T10:06:55;5.95;;;1.73;;
21354;SDS011;10835;50.148;19.760;2023-07-31T10:09:26;2.88;;;1.48;;
21354;SDS011;10835;50.148;19.760;2023-07-31T10:12:02;2.20;;;1.50;;
21354;SDS011;10835;50.148;19.760;2023-07-31T10:14:38;2.50;;;1.60;;
21354;SDS011;10835;50.148;19.760;2023-07-31T10:17:11;2.58;;;1.42;;
21354;SDS011;10835;50.148;19.760;2023-07-31T10:19:41;2.83;;;1.67;;
21354;SDS011;10835;50.148;19.760;2023-07-31T10:22:12;2.97;;;1.08;;
21354;SDS011;10835;50.148;19.760;2023-07-31T10:24:41;2.95;;;1.45;;
21354;SDS011;10835;50.148;19.760;2023-07-31T10:27:12;3.53;;;1.70;;
21354;SDS011;10835;50.148;19.760;2023-07-31T10:29:40;1.95;;;1.30;;
21354;SDS011;10835;50.148;19.760;2023-07-31T10:32:12;3.35;;;1.55;;
21354;SDS011;10835;50.148;19.760;2023-07-31T10:34:42;2.38;;;1.33;;
21354;SDS011;10835;50.148;19.760;2023-07-31T10:37:22;2.05;;;1.42;;
21354;SDS011;10835;50.148;19.760;2023-07-31T10:39:55;2.78;;;1.20;;
21354;SDS011;10835;50.148;19.760;2023-07-31T10:42:28;4.63;;;1.55;;
21354;SDS011;10835;50.148;19.760;2023-07-31T10:44:58;4.80;;;1.67;;
21354;SDS011;10835;50.148;19.760;2023-07-31T10:47:28;2.53;;;1.20;;
21354;SDS011;10835;50.148;19.760;2023-07-31T10:52:57;4.82;;;1.52;;
21354;SDS011;10835;50.148;19.760;2023-07-31T10:55:27;4.00;;;1.73;;
21354;SDS011;10835;50.148;19.760;2023-07-31T10:57:58;2.00;;;1.33;;
21354;SDS011;10835;50.148;19.760;2023-07-31T11:00:36;4.43;;;1.50;;
21354;SDS011;10835;50.148;19.760;2023-07-31T11:03:06;2.60;;;1.42;;
21354;SDS011;10835;50.148;19.760;2023-07-31T11:05:40;3.03;;;1.20;;
21354;SDS011;10835;50.148;19.760;2023-07-31T11:08:22;1.45;;;1.17;;
21354;SDS011;10835;50.148;19.760;2023-07-31T11:11:04;2.30;;;1.48;;
21354;SDS011;10835;50.148;19.760;2023-07-31T11:13:39;2.25;;;1.20;;
21354;SDS011;10835;50.148;19.760;2023-07-31T11:16:08;4.40;;;1.65;;
21354;SDS011;10835;50.148;19.760;2023-07-31T11:18:38;2.53;;;1.30;;
21354;SDS011;10835;50.148;19.760;2023-07-31T11:21:08;2.10;;;1.35;;
21354;SDS011;10835;50.148;19.760;2023-07-31T11:23:40;3.38;;;1.83;;
21354;SDS011;10835;50.148;19.760;2023-07-31T11:26:11;2.95;;;1.70;;
21354;SDS011;10835;50.148;19.760;2023-07-31T11:28:40;2.20;;;1.30;;
21354;SDS011;10835;50.148;19.760;2023-07-31T11:31:12;2.97;;;1.30;;
21354;SDS011;10835;50.148;19.760;2023-07-31T11:33:41;5.20;;;1.80;;
21354;SDS011;10835;50.148;19.760;2023-07-31T11:36:14;2.53;;;1.40;;
21354;SDS011;10835;50.148;19.760;2023-07-31T11:38:44;2.33;;;1.25;;
21354;SDS011;10835;50.148;19.760;2023-07-31T11:41:14;3.75;;;1.38;;
21354;SDS011;10835;50.148;19.760;2023-07-31T11:43:45;1.17;;;1.02;;
21354;SDS011;10835;50.148;19.760;2023-07-31T11:46:14;2.30;;;1.33;;
21354;SDS011;10835;50.148;19.760;2023-07-31T11:48:43;2.35;;;1.13;;
21354;SDS011;10835;50.148;19.760;2023-07-31T11:51:15;2.20;;;1.10;;
21354;SDS011;10835;50.148;19.760;2023-07-31T11:53:47;8.88;;;1.45;;
21354;SDS011;10835;50.148;19.760;2023-07-31T11:56:19;2.72;;;1.40;;
21354;SDS011;10835;50.148;19.760;2023-07-31T11:58:49;2.25;;;1.33;;
21354;SDS011;10835;50.148;19.760;2023-07-31T12:01:21;3.00;;;1.40;;
21354;SDS011;10835;50.148;19.760;2023-07-31T12:03:53;2.03;;;1.30;;
21354;SDS011;10835;50.148;19.760;2023-07-31T12:06:32;2.65;;;1.60;;
21354;SDS011;10835;50.148;19.760;2023-07-31T12:09:04;2.30;;;1.35;;
21354;SDS011;10835;50.148;19.760;2023-07-31T12:11:42;1.58;;;1.38;;
21354;SDS011;10835;50.148;19.760;2023-07-31T12:14:19;2.88;;;1.98;;
21354;SDS011;10835;50.148;19.760;2023-07-31T12:16:52;4.15;;;1.67;;
21354;SDS011;10835;50.148;19.760;2023-07-31T12:19:22;1.63;;;1.23;;
21354;SDS011;10835;50.148;19.760;2023-07-31T12:21:53;1.73;;;1.35;;
21354;SDS011;10835;50.148;19.760;2023-07-31T12:24:22;2.30;;;1.30;;
21354;SDS011;10835;50.148;19.760;2023-07-31T12:26:53;1.75;;;1.33;;
21354;SDS011;10835;50.148;19.760;2023-07-31T12:29:22;2.20;;;1.30;;
21354;SDS011;10835;50.148;19.760;2023-07-31T12:31:50;2.22;;;1.35;;
21354;SDS011;10835;50.148;19.760;2023-07-31T12:34:19;5.10;;;1.48;;
21354;SDS011;10835;50.148;19.760;2023-07-31T12:36:48;3.22;;;1.35;;
21354;SDS011;10835;50.148;19.760;2023-07-31T12:39:17;3.13;;;1.58;;
21354;SDS011;10835;50.148;19.760;2023-07-31T12:41:47;1.63;;;1.33;;
21354;SDS011;10835;50.148;19.760;2023-07-31T12:44:15;2.55;;;1.27;;
21354;SDS011;10835;50.148;19.760;2023-07-31T12:46:44;4.65;;;1.60;;
21354;SDS011;10835;50.148;19.760;2023-07-31T12:49:12;3.25;;;1.20;;
21354;SDS011;10835;50.148;19.760;2023-07-31T12:51:41;2.13;;;1.33;;
21354;SDS011;10835;50.148;19.760;2023-07-31T12:54:12;2.30;;;1.20;;
21354;SDS011;10835;50.148;19.760;2023-07-31T12:56:40;4.00;;;1.52;;
21354;SDS011;10835;50.148;19.760;2023-07-31T12:59:10;6.15;;;1.20;;
21354;SDS011;10835;50.148;19.760;2023-07-31T13:01:38;6.72;;;2.22;;
21354;SDS011;10835;50.148;19.760;2023-07-31T13:04:07;1.92;;;1.10;;
21354;SDS011;10835;50.148;19.760;2023-07-31T13:06:35;6.90;;;1.90;;
21354;SDS011;10835;50.148;19.760;2023-07-31T13:09:04;5.60;;;1.42;;
21354;SDS011;10835;50.148;19.760;2023-07-31T13:11:35;2.42;;;1.52;;
21354;SDS011;10835;50.148;19.760;2023-07-31T13:14:04;5.38;;;1.80;;
21354;SDS011;10835;50.148;19.760;2023-07-31T13:16:34;2.97;;;1.58;;
21354;SDS011;10835;50.148;19.760;2023-07-31T13:19:03;8.88;;;1.60;;
21354;SDS011;10835;50.148;19.760;2023-07-31T13:21:33;3.20;;;1.50;;
21354;SDS011;10835;50.148;19.760;2023-07-31T13:24:03;3.08;;;1.20;;
21354;SDS011;10835;50.148;19.760;2023-07-31T13:26:34;3.95;;;1.48;;
21354;SDS011;10835;50.148;19.760;2023-07-31T13:29:04;2.38;;;1.52;;
21354;SDS011;10835;50.148;19.760;2023-07-31T13:31:36;8.65;;;1.60;;
21354;SDS011;10835;50.148;19.760;2023-07-31T13:34:05;1.70;;;1.60;;
21354;SDS011;10835;50.148;19.760;2023-07-31T13:36:33;4.63;;;1.45;;
21354;SDS011;10835;50.148;19.760;2023-07-31T13:39:04;2.60;;;1.50;;
21354;SDS011;10835;50.148;19.760;2023-07-31T13:41:32;1.30;;;1.20;;
21354;SDS011;10835;50.148;19.760;2023-07-31T13:44:01;2.85;;;1.50;;
21354;SDS011;10835;50.148;19.760;2023-07-31T13:46:28;2.10;;;1.40;;
21354;SDS011;10835;50.148;19.760;2023-07-31T13:48:58;2.92;;;1.60;;
21354;SDS011;10835;50.148;19.760;2023-07-31T13:51:28;2.58;;;1.45;;
21354;SDS011;10835;50.148;19.760;2023-07-31T13:53:56;1.60;;;1.38;;
21354;SDS011;10835;50.148;19.760;2023-07-31T13:56:25;2.97;;;1.50;;
21354;SDS011;10835;50.148;19.760;2023-07-31T13:58:53;3.05;;;1.65;;
21354;SDS011;10835;50.148;19.760;2023-07-31T14:01:21;2.63;;;1.17;;
21354;SDS011;10835;50.148;19.760;2023-07-31T14:03:50;3.40;;;1.58;;
21354;SDS011;10835;50.148;19.760;2023-07-31T14:06:20;3.78;;;1.65;;
21354;SDS011;10835;50.148;19.760;2023-07-31T14:08:49;5.13;;;1.40;;
21354;SDS011;10835;50.148;19.760;2023-07-31T14:11:18;2.38;;;1.50;;
21354;SDS011;10835;50.148;19.760;2023-07-31T14:13:46;1.88;;;1.38;;
21354;SDS011;10835;50.148;19.760;2023-07-31T14:16:14;2.75;;;1.27;;
21354;SDS011;10835;50.148;19.760;2023-07-31T14:18:43;3.42;;;1.55;;
21354;SDS011;10835;50.148;19.760;2023-07-31T14:21:14;2.08;;;1.27;;
21354;SDS011;10835;50.148;19.760;2023-07-31T14:23:44;3.97;;;1.40;;
21354;SDS011;10835;50.148;19.760;2023-07-31T14:26:13;3.17;;;1.67;;
21354;SDS011;10835;50.148;19.760;2023-07-31T14:28:41;3.70;;;1.30;;
21354;SDS011;10835;50.148;19.760;2023-07-31T14:31:12;3.38;;;1.25;;
21354;SDS011;10835;50.148;19.760;2023-07-31T14:33:40;3.08;;;1.17;;
21354;SDS011;10835;50.148;19.760;2023-07-31T14:36:09;5.88;;;1.60;;
21354;SDS011;10835;50.148;19.760;2023-07-31T14:38:37;1.77;;;1.30;;
21354;SDS011;10835;50.148;19.760;2023-07-31T14:41:07;2.63;;;1.20;;
21354;SDS011;10835;50.148;19.760;2023-07-31T14:43:36;2.67;;;1.10;;
21354;SDS011;10835;50.148;19.760;2023-07-31T14:46:04;2.70;;;1.42;;
21354;SDS011;10835;50.148;19.760;2023-07-31T14:48:33;3.47;;;1.40;;
21354;SDS011;10835;50.148;19.760;2023-07-31T14:51:01;2.03;;;1.10;;